Time;durP1;ratioP1;P1;durP2;ratioP2;P2;SDS_P1;SDS_P2;PMS_P1;PMS_P2;Temp;Humidity;BMP_temperature;BMP_pressure;BME280_temperature;BME280_humidity;BME280_pressure;Samples;Min_cycle;Max_cycle;Signal;HPM_P1;HPM_P2
2021/12/16 00:09:32;;;;;;;5.95;3.75;;;7.30;62.70;;;;;;5016578;28;20041;-74
2021/12/16 00:29:39;;;;;;;6.07;4.28;;;7.30;62.80;;;;;;5018415;28;20038;-74
2021/12/16 00:31:26;;;;;;;7.35;4.88;;;7.30;62.90;;;;;;5007677;28;20699;-74
2021/12/16 00:34:00;;;;;;;5.88;4.07;;;7.30;62.80;;;;;;5017970;28;20087;-74
2021/12/16 00:36:29;;;;;;;6.32;3.88;;;7.30;62.80;;;;;;5016000;28;20140;-74
2021/12/16 00:38:55;;;;;;;6.93;4.22;;;7.30;62.80;;;;;;5016786;28;20739;-74
2021/12/16 00:41:21;;;;;;;5.22;4.13;;;7.30;62.90;;;;;;5015396;28;20037;-74
2021/12/16 00:43:57;;;;;;;5.93;4.60;;;7.30;62.70;;;;;;5017086;28;20033;-74
2021/12/16 00:46:54;;;;;;;7.20;4.38;;;7.30;62.90;;;;;;5016230;28;20060;-74
2021/12/16 00:55:10;;;;;;;6.53;4.88;;;7.30;62.80;;;;;;5006426;28;20029;-74
2021/12/16 00:57:37;;;;;;;6.05;4.28;;;7.30;62.80;;;;;;5014740;28;20045;-74
2021/12/16 01:00:06;;;;;;;7.05;4.50;;;7.30;62.80;;;;;;5015406;28;20076;-74
2021/12/16 01:33:43;;;;;;;5.50;3.67;;;7.30;63.00;;;;;;5016553;28;20038;-73
2021/12/16 01:49:49;;;;;;;6.03;3.90;;;7.30;62.80;;;;;;5019412;28;20415;-74
2021/12/16 01:55:24;;;;;;;5.70;4.03;;;7.30;62.90;;;;;;5020004;28;20468;-74
2021/12/16 01:57:51;;;;;;;5.93;3.97;;;7.30;63.00;;;;;;5017804;28;21035;-74
2021/12/16 02:00:29;;;;;;;5.68;3.83;;;7.30;63.00;;;;;;5024180;28;20476;-74
2021/12/16 02:03:05;;;;;;;5.05;3.65;;;7.30;63.00;;;;;;5017421;28;20073;-73
2021/12/16 02:08:31;;;;;;;6.03;4.10;;;7.30;63.00;;;;;;5023036;28;20455;-73
2021/12/16 02:11:17;;;;;;;5.78;3.83;;;7.30;62.90;;;;;;5016877;28;20029;-73
2021/12/16 02:30:32;;;;;;;5.00;3.88;;;7.30;62.90;;;;;;5021039;28;20135;-74
2021/12/16 02:35:30;;;;;;;4.55;3.70;;;7.30;63.10;;;;;;5018329;28;20065;-73
2021/12/16 02:37:59;;;;;;;5.22;3.72;;;7.30;63.10;;;;;;5019836;28;20116;-74
2021/12/16 02:40:26;;;;;;;4.13;3.40;;;7.30;63.10;;;;;;5007731;28;20049;-73
2021/12/16 02:42:58;;;;;;;6.03;3.63;;;7.30;63.20;;;;;;5019464;28;20046;-75
2021/12/16 02:51:11;;;;;;;3.85;3.33;;;7.30;63.20;;;;;;5018187;28;20045;-74
2021/12/16 02:53:44;;;;;;;4.40;3.33;;;7.30;63.20;;;;;;5016703;28;20044;-74
2021/12/16 02:56:11;;;;;;;4.28;3.00;;;7.30;63.90;;;;;;5016396;28;20034;-74
2021/12/16 02:58:40;;;;;;;3.95;3.10;;;7.30;63.20;;;;;;5017782;28;20026;-74
2021/12/16 03:01:15;;;;;;;3.53;3.03;;;7.30;63.20;;;;;;5018401;28;20038;-74
2021/12/16 03:03:41;;;;;;;7.28;3.47;;;7.30;63.30;;;;;;5018093;28;20033;-75
2021/12/16 03:06:10;;;;;;;4.30;3.00;;;7.30;63.30;;;;;;5018575;28;20044;-75
2021/12/16 03:08:37;;;;;;;4.07;3.47;;;7.30;63.30;;;;;;5018067;28;20061;-74
2021/12/16 03:13:40;;;;;;;4.18;3.08;;;7.30;63.40;;;;;;5017442;28;20037;-74
2021/12/16 03:18:49;;;;;;;3.90;3.20;;;7.30;63.40;;;;;;5019053;28;20619;-74
2021/12/16 03:21:29;;;;;;;2.35;2.15;;;7.30;63.40;;;;;;5016445;28;20052;-74
2021/12/16 03:27:22;;;;;;;3.65;2.67;;;7.30;63.50;;;;;;5017374;28;20036;-75
2021/12/16 03:33:13;;;;;;;3.88;2.63;;;7.30;63.60;;;;;;4976961;28;20558;-74
2021/12/16 03:35:53;;;;;;;3.38;2.42;;;7.30;63.60;;;;;;4976937;28;20053;-73
2021/12/16 03:38:19;;;;;;;2.70;2.40;;;7.30;63.70;;;;;;5010291;28;20050;-73
2021/12/16 03:40:45;;;;;;;2.83;2.47;;;7.30;63.80;;;;;;5015453;28;20025;-73
2021/12/16 03:43:15;;;;;;;3.60;2.50;;;7.30;63.80;;;;;;5018189;28;20499;-73
2021/12/16 03:48:53;;;;;;;3.15;2.50;;;7.30;63.80;;;;;;5018782;28;20133;-73
2021/12/16 03:51:30;;;;;;;2.65;2.35;;;7.30;63.80;;;;;;5016492;28;20033;-74
2021/12/16 03:54:20;;;;;;;3.28;2.42;;;7.30;63.80;;;;;;5011130;28;20034;-73
2021/12/16 03:56:53;;;;;;;2.83;2.35;;;7.30;63.80;;;;;;5017279;28;20103;-74
2021/12/16 03:59:25;;;;;;;3.13;2.53;;;7.30;63.90;;;;;;5005510;28;20467;-74
2021/12/16 04:02:22;;;;;;;2.92;2.45;;;7.30;63.90;;;;;;4974880;28;20047;-74
2021/12/16 04:04:51;;;;;;;2.40;2.20;;;7.30;63.90;;;;;;4974751;28;20066;-74
2021/12/16 04:07:26;;;;;;;2.50;2.30;;;7.30;64.00;;;;;;4977366;28;20116;-74
2021/12/16 04:10:16;;;;;;;2.53;2.33;;;7.30;63.90;;;;;;5016140;28;20117;-74
2021/12/16 04:12:43;;;;;;;3.20;2.70;;;7.30;63.90;;;;;;5030239;28;20033;-74
2021/12/16 04:15:10;;;;;;;2.63;2.25;;;7.30;63.90;;;;;;4999883;28;20041;-74
2021/12/16 04:17:44;;;;;;;4.32;2.22;;;7.30;63.90;;;;;;5000056;28;20179;-74
2021/12/16 04:20:13;;;;;;;2.55;2.22;;;7.30;64.00;;;;;;5017030;28;20037;-74
2021/12/16 04:22:43;;;;;;;2.85;2.03;;;7.30;64.00;;;;;;5018193;28;20215;-73
2021/12/16 04:25:30;;;;;;;2.42;2.20;;;7.30;64.00;;;;;;5017680;28;20033;-74
2021/12/16 04:28:01;;;;;;;2.67;2.20;;;7.30;64.20;;;;;;5018524;28;20514;-74
2021/12/16 04:30:30;;;;;;;2.60;2.20;;;7.30;64.20;;;;;;5019891;28;20045;-75
2021/12/16 04:32:57;;;;;;;2.05;1.77;;;7.30;64.20;;;;;;5019873;28;20044;-74
2021/12/16 04:35:27;;;;;;;2.72;1.95;;;7.30;64.20;;;;;;5015856;28;20054;-75
2021/12/16 04:37:54;;;;;;;2.20;1.80;;;7.30;64.30;;;;;;5015772;28;20504;-74
2021/12/16 04:40:25;;;;;;;2.38;2.10;;;7.30;64.30;;;;;;5012570;28;20037;-74
2021/12/16 04:43:00;;;;;;;1.90;1.80;;;7.30;64.20;;;;;;5014257;28;20030;-75
2021/12/16 04:45:28;;;;;;;2.35;1.83;;;7.30;64.20;;;;;;5016910;28;20072;-75
2021/12/16 04:47:55;;;;;;;2.17;1.98;;;7.30;64.20;;;;;;5010721;28;20029;-75
2021/12/16 04:50:21;;;;;;;2.67;1.90;;;7.40;64.40;;;;;;5021764;28;20645;-76
2021/12/16 04:52:47;;;;;;;2.45;2.10;;;7.30;64.20;;;;;;5023198;28;20095;-76
2021/12/16 04:55:16;;;;;;;1.60;1.50;;;7.40;64.30;;;;;;5022784;28;20025;-78
2021/12/16 04:57:44;;;;;;;2.95;1.92;;;7.40;64.30;;;;;;5023382;28;20063;-78
2021/12/16 05:00:15;;;;;;;2.42;1.90;;;7.40;64.20;;;;;;5023351;28;20041;-79
2021/12/16 05:02:47;;;;;;;1.98;1.60;;;7.40;64.20;;;;;;5024656;28;20060;-78
2021/12/16 05:05:34;;;;;;;2.60;1.70;;;7.40;64.30;;;;;;5024214;28;20042;-77
2021/12/16 05:08:01;;;;;;;1.77;1.60;;;7.40;64.40;;;;;;5024529;28;20149;-78
2021/12/16 05:10:35;;;;;;;1.75;1.63;;;7.40;64.40;;;;;;5023800;28;20038;-79
2021/12/16 05:13:08;;;;;;;2.05;1.65;;;7.40;64.40;;;;;;5026881;28;20041;-77
2021/12/16 05:15:37;;;;;;;2.45;1.77;;;7.40;64.40;;;;;;5024694;28;20030;-78
2021/12/16 05:18:08;;;;;;;1.77;1.67;;;7.40;64.50;;;;;;5023196;28;20037;-77
2021/12/16 05:20:40;;;;;;;3.20;1.88;;;7.40;64.60;;;;;;5037343;28;20385;-79
2021/12/16 05:26:14;;;;;;;2.20;1.60;;;7.40;64.60;;;;;;5028067;28;20124;-80
2021/12/16 05:28:54;;;;;;;1.90;1.80;;;7.40;64.60;;;;;;5022283;28;20196;-77
2021/12/16 05:31:22;;;;;;;4.03;1.90;;;7.40;64.60;;;;;;5019976;28;20045;-77
2021/12/16 05:33:51;;;;;;;2.05;1.70;;;7.40;64.70;;;;;;5022961;28;20492;-77
2021/12/16 05:36:18;;;;;;;2.28;1.50;;;7.40;64.60;;;;;;5024650;28;20132;-76
2021/12/16 05:38:45;;;;;;;1.70;1.60;;;7.40;64.60;;;;;;5021001;28;20500;-77
2021/12/16 05:41:15;;;;;;;1.48;1.35;;;7.40;64.60;;;;;;5023328;28;20037;-77
2021/12/16 05:43:43;;;;;;;2.47;1.40;;;7.40;64.60;;;;;;5022968;28;20036;-78
2021/12/16 05:46:11;;;;;;;1.70;1.55;;;7.40;64.60;;;;;;5010339;28;20033;-77
2021/12/16 05:48:40;;;;;;;2.08;1.60;;;7.40;65.30;;;;;;5021691;28;20037;-77
2021/12/16 05:51:12;;;;;;;1.80;1.60;;;7.40;64.70;;;;;;5012088;28;20041;-77
2021/12/16 05:53:39;;;;;;;3.85;1.73;;;7.40;64.70;;;;;;5024603;28;20029;-78
2021/12/16 05:56:14;;;;;;;1.80;1.70;;;7.40;64.80;;;;;;5010320;28;20030;-78
2021/12/16 05:58:41;;;;;;;2.22;1.95;;;7.40;64.80;;;;;;5037029;28;20041;-77
2021/12/16 06:01:26;;;;;;;2.05;1.60;;;7.40;64.80;;;;;;5022321;28;20542;-77
2021/12/16 06:03:53;;;;;;;2.30;1.45;;;7.50;64.80;;;;;;5023957;28;20508;-77
2021/12/16 06:06:20;;;;;;;2.15;1.95;;;7.50;64.80;;;;;;5022054;28;20022;-77
2021/12/16 06:08:47;;;;;;;2.50;1.73;;;7.40;64.70;;;;;;5025156;28;20036;-77
2021/12/16 06:11:20;;;;;;;2.45;1.73;;;7.50;64.80;;;;;;5021924;28;20029;-77
2021/12/16 06:14:25;;;;;;;2.95;1.75;;;7.50;64.80;;;;;;5003996;28;20044;-78
2021/12/16 06:27:41;;;;;;;2.40;1.67;;;7.50;64.70;;;;;;5024922;28;20052;-77
2021/12/16 06:30:13;;;;;;;1.90;1.60;;;7.50;64.80;;;;;;5027329;28;20240;-76
2021/12/16 06:32:40;;;;;;;2.33;1.88;;;7.50;64.70;;;;;;5028742;28;20040;-78
2021/12/16 06:35:08;;;;;;;2.35;1.70;;;7.50;64.70;;;;;;5026598;28;20033;-77
2021/12/16 06:37:34;;;;;;;2.22;1.70;;;7.60;64.80;;;;;;5008638;28;20042;-76
2021/12/16 06:40:00;;;;;;;2.47;1.70;;;7.60;64.80;;;;;;5008800;28;20104;-76
2021/12/16 06:42:36;;;;;;;1.92;1.75;;;7.60;64.70;;;;;;5021701;28;20040;-76
2021/12/16 06:45:08;;;;;;;2.30;1.70;;;7.60;64.70;;;;;;5026616;28;20062;-77
2021/12/16 06:47:43;;;;;;;2.67;1.77;;;7.60;64.70;;;;;;5026494;28;20030;-76
2021/12/16 06:50:13;;;;;;;3.28;1.45;;;7.60;64.80;;;;;;5026785;28;20038;-76
2021/12/16 06:52:46;;;;;;;3.67;1.92;;;7.60;64.80;;;;;;5025905;28;20037;-76
2021/12/16 06:55:29;;;;;;;2.20;1.80;;;7.60;64.80;;;;;;5024851;28;20093;-76
2021/12/16 06:57:58;;;;;;;2.30;1.73;;;7.60;64.90;;;;;;5026519;28;20041;-76
2021/12/16 07:00:36;;;;;;;2.38;1.52;;;7.60;64.90;;;;;;5023685;28;20029;-76
2021/12/16 07:03:05;;;;;;;3.38;2.08;;;7.60;64.90;;;;;;5025260;28;20030;-76
2021/12/16 07:05:37;;;;;;;1.65;1.55;;;7.60;64.90;;;;;;5026319;28;20038;-75
2021/12/16 07:08:06;;;;;;;2.72;1.73;;;7.60;65.00;;;;;;5024240;28;20076;-76
2021/12/16 07:10:32;;;;;;;2.28;1.77;;;7.60;65.00;;;;;;5025202;28;20100;-76
2021/12/16 07:13:06;;;;;;;2.45;2.03;;;7.60;65.00;;;;;;5027360;28;20439;-76
2021/12/16 07:15:33;;;;;;;2.42;2.20;;;7.70;65.10;;;;;;5025659;28;20029;-77
2021/12/16 07:17:59;;;;;;;2.80;1.80;;;7.60;65.00;;;;;;5009818;28;20067;-76
2021/12/16 07:20:28;;;;;;;4.57;2.03;;;7.70;65.10;;;;;;5025838;28;20191;-76
2021/12/16 07:22:56;;;;;;;3.60;1.83;;;7.70;65.10;;;;;;5013225;28;20026;-76
2021/12/16 07:25:22;;;;;;;2.85;1.92;;;7.60;65.40;;;;;;5024651;28;20049;-76
2021/12/16 07:27:48;;;;;;;3.67;2.10;;;7.70;65.10;;;;;;4990429;28;20033;-75
2021/12/16 07:30:16;;;;;;;2.30;1.58;;;7.70;65.10;;;;;;5024310;28;20030;-76
2021/12/16 07:32:42;;;;;;;5.53;1.92;;;7.70;65.10;;;;;;5007386;28;20030;-75
2021/12/16 07:35:20;;;;;;;2.63;1.98;;;7.70;65.10;;;;;;5025928;28;20045;-77
2021/12/16 07:37:47;;;;;;;3.38;2.60;;;7.70;65.10;;;;;;5024570;28;20033;-76
2021/12/16 07:40:18;;;;;;;2.33;1.90;;;7.70;65.10;;;;;;4994561;28;20033;-76
2021/12/16 07:42:58;;;;;;;2.35;2.15;;;7.70;65.10;;;;;;5025269;28;20080;-75
2021/12/16 07:45:24;;;;;;;3.28;2.10;;;7.70;65.10;;;;;;5022693;28;20064;-76
2021/12/16 07:47:51;;;;;;;5.88;2.38;;;7.70;65.10;;;;;;5025744;28;20132;-76
2021/12/16 07:50:18;;;;;;;2.92;2.20;;;7.70;65.20;;;;;;5006622;28;20029;-77
2021/12/16 07:52:44;;;;;;;2.63;1.98;;;7.70;65.20;;;;;;5007666;28;20472;-76
2021/12/16 07:55:12;;;;;;;6.30;2.22;;;7.80;65.30;;;;;;5009739;28;20044;-77
2021/12/16 07:57:39;;;;;;;3.20;2.33;;;7.70;65.20;;;;;;5027390;28;20551;-74
2021/12/16 08:00:09;;;;;;;3.92;2.42;;;7.80;65.30;;;;;;5022512;28;20116;-76
2021/12/16 08:02:38;;;;;;;3.35;2.38;;;7.80;65.30;;;;;;5026381;28;20144;-76
2021/12/16 08:05:07;;;;;;;3.90;2.88;;;7.80;65.30;;;;;;4993993;28;20041;-76
2021/12/16 08:07:33;;;;;;;4.68;2.67;;;7.80;69.50;;;;;;5020576;28;20515;-76
2021/12/16 08:10:00;;;;;;;4.88;2.90;;;7.80;70.40;;;;;;5018070;28;20038;-76
2021/12/16 08:12:26;;;;;;;4.68;3.08;;;7.80;71.20;;;;;;5013236;28;20092;-76
2021/12/16 08:14:52;;;;;;;4.95;3.22;;;7.70;71.60;;;;;;5018101;28;20463;-76
2021/12/16 08:17:18;;;;;;;6.10;3.40;;;7.70;72.50;;;;;;5019103;28;20346;-77
2021/12/16 08:19:46;;;;;;;6.18;3.47;;;7.70;72.70;;;;;;5018774;28;20096;-77
2021/12/16 08:22:12;;;;;;;7.90;3.13;;;7.70;72.90;;;;;;5020224;28;20029;-77
2021/12/16 08:24:39;;;;;;;5.03;3.13;;;7.70;73.10;;;;;;5011534;28;20072;-77
2021/12/16 08:27:05;;;;;;;8.80;3.75;;;7.70;73.40;;;;;;5018578;28;20673;-76
2021/12/16 08:29:31;;;;;;;5.07;3.40;;;7.70;73.50;;;;;;5010777;28;20455;-77
2021/12/16 08:31:57;;;;;;;4.18;3.38;;;7.70;74.00;;;;;;4998853;28;20047;-77
2021/12/16 08:34:25;;;;;;;6.13;3.25;;;7.70;73.90;;;;;;5010762;28;20049;-77
2021/12/16 08:36:51;;;;;;;4.22;2.85;;;7.80;73.90;;;;;;5011167;28;20061;-77
2021/12/16 08:39:18;;;;;;;5.75;3.10;;;7.80;74.00;;;;;;5024267;28;20121;-78
2021/12/16 08:41:49;;;;;;;3.72;2.63;;;7.80;73.60;;;;;;5007603;28;20118;-77
2021/12/16 08:44:16;;;;;;;4.85;2.92;;;7.80;73.50;;;;;;5003810;28;20508;-78
2021/12/16 08:46:47;;;;;;;3.70;2.40;;;7.80;73.10;;;;;;5002214;28;20037;-78
2021/12/16 08:49:14;;;;;;;3.25;2.20;;;7.80;72.70;;;;;;5000710;28;20101;-78
2021/12/16 08:51:49;;;;;;;3.60;2.30;;;7.90;72.20;;;;;;5003672;28;20037;-77
2021/12/16 08:54:16;;;;;;;3.65;2.40;;;7.90;71.60;;;;;;5018755;28;20045;-78
2021/12/16 08:56:43;;;;;;;5.07;2.80;;;8.00;71.10;;;;;;5017412;28;20034;-78
2021/12/16 08:59:11;;;;;;;4.30;2.70;;;8.00;70.60;;;;;;5026733;28;20130;-78
2021/12/16 09:01:41;;;;;;;4.03;2.65;;;8.10;70.20;;;;;;5018348;28;20045;-79
2021/12/16 09:04:07;;;;;;;4.57;2.90;;;8.10;69.80;;;;;;5003252;28;20041;-79
2021/12/16 09:06:35;;;;;;;3.90;2.65;;;8.10;69.40;;;;;;5019885;28;20150;-79
2021/12/16 09:09:03;;;;;;;6.53;2.80;;;8.10;69.10;;;;;;5022027;28;20034;-79
2021/12/16 09:11:33;;;;;;;3.65;2.58;;;8.10;68.90;;;;;;5004949;28;20041;-79
2021/12/16 09:13:59;;;;;;;4.97;2.70;;;8.10;68.60;;;;;;5023826;28;20049;-80
2021/12/16 09:16:28;;;;;;;4.22;2.95;;;8.10;68.50;;;;;;5012936;28;20041;-80
2021/12/16 09:18:55;;;;;;;6.32;3.08;;;8.10;68.30;;;;;;4983560;28;20425;-79
2021/12/16 09:21:25;;;;;;;3.70;2.95;;;8.10;68.30;;;;;;5024511;28;20112;-79
2021/12/16 09:23:52;;;;;;;5.22;3.08;;;8.10;68.10;;;;;;5005629;28;20361;-78
2021/12/16 09:26:19;;;;;;;3.75;3.05;;;8.20;68.10;;;;;;5023262;28;20060;-79
2021/12/16 09:28:46;;;;;;;4.35;2.83;;;8.20;67.90;;;;;;5024301;28;20044;-78
2021/12/16 09:31:14;;;;;;;4.78;2.72;;;8.20;67.90;;;;;;5023860;28;20038;-78
2021/12/16 09:33:44;;;;;;;4.57;3.00;;;8.10;67.80;;;;;;5025402;28;20052;-77
2021/12/16 09:36:13;;;;;;;3.83;2.85;;;8.20;67.80;;;;;;5025999;28;20428;-78
2021/12/16 09:38:43;;;;;;;4.43;2.97;;;8.10;67.70;;;;;;5023435;28;20037;-79
2021/12/16 09:41:10;;;;;;;7.18;3.80;;;8.20;67.70;;;;;;5024292;28;20038;-78
2021/12/16 09:43:41;;;;;;;5.60;3.00;;;8.10;67.60;;;;;;5004522;28;20101;-77
2021/12/16 09:46:11;;;;;;;5.22;3.13;;;8.20;67.60;;;;;;5019255;28;20038;-77
2021/12/16 09:48:38;;;;;;;6.28;3.30;;;8.10;67.50;;;;;;5021005;28;20075;-78
2021/12/16 09:51:08;;;;;;;5.70;3.25;;;8.10;67.50;;;;;;5004664;28;20148;-77
2021/12/16 09:53:37;;;;;;;5.47;3.25;;;8.10;67.50;;;;;;5024120;28;20123;-79
2021/12/16 09:56:04;;;;;;;5.35;3.08;;;8.20;67.50;;;;;;5005846;28;20153;-79
2021/12/16 09:58:35;;;;;;;4.40;3.03;;;8.20;67.50;;;;;;5021210;28;20112;-80
2021/12/16 10:01:03;;;;;;;3.78;2.97;;;8.10;67.40;;;;;;5020150;28;20036;-79
2021/12/16 10:03:29;;;;;;;4.90;3.17;;;8.10;67.40;;;;;;5023080;28;20033;-80
2021/12/16 10:05:56;;;;;;;5.35;2.67;;;8.20;67.50;;;;;;5025014;28;20029;-80
2021/12/16 10:08:22;;;;;;;6.53;2.60;;;8.20;67.80;;;;;;5024505;28;20113;-81
2021/12/16 10:10:48;;;;;;;4.47;2.53;;;8.20;68.10;;;;;;5024788;28;20037;-82
2021/12/16 10:13:21;;;;;;;5.47;2.63;;;8.30;68.60;;;;;;4997895;28;20056;-82
2021/12/16 10:18:21;;;;;;;2.88;2.00;;;8.40;69.20;;;;;;5028269;28;20353;-82
2021/12/16 10:20:52;;;;;;;4.47;2.25;;;8.40;69.40;;;;;;5027567;28;20036;-82
2021/12/16 10:23:25;;;;;;;3.50;2.40;;;8.40;69.50;;;;;;4998143;28;20030;-81
2021/12/16 10:25:54;;;;;;;4.03;2.35;;;8.40;69.60;;;;;;5008953;28;20436;-82
2021/12/16 10:28:33;;;;;;;5.10;2.47;;;8.40;69.60;;;;;;5028648;28;20169;-82
2021/12/16 10:31:09;;;;;;;3.38;2.17;;;8.50;69.80;;;;;;5026412;28;20033;-83
2021/12/16 10:33:42;;;;;;;4.55;2.25;;;8.50;69.70;;;;;;4998381;28;20038;-82
2021/12/16 10:36:16;;;;;;;4.32;2.25;;;8.50;69.70;;;;;;5027318;28;20109;-82
2021/12/16 10:38:53;;;;;;;4.65;2.60;;;8.50;69.70;;;;;;4997997;28;20041;-82
2021/12/16 10:41:32;;;;;;;3.17;2.33;;;8.60;69.90;;;;;;5014360;28;20029;-82
2021/12/16 10:44:04;;;;;;;5.68;2.70;;;8.60;69.90;;;;;;4998098;28;20033;-82
2021/12/16 10:46:34;;;;;;;3.85;2.30;;;8.60;70.00;;;;;;4998487;28;20033;-82
2021/12/16 10:49:07;;;;;;;2.85;2.40;;;8.60;70.00;;;;;;5009540;28;20130;-82
2021/12/16 10:51:43;;;;;;;6.93;2.70;;;8.60;69.90;;;;;;5023584;28;20034;-82
2021/12/16 10:54:17;;;;;;;3.55;2.60;;;8.70;70.10;;;;;;5026657;28;20037;-81
2021/12/16 10:56:59;;;;;;;3.95;2.30;;;8.70;70.60;;;;;;5027644;28;20526;-81
2021/12/16 10:59:34;;;;;;;6.43;2.67;;;8.70;70.10;;;;;;5007919;28;20045;-82
2021/12/16 11:02:05;;;;;;;6.80;2.72;;;8.70;70.00;;;;;;5007648;28;20037;-82
2021/12/16 11:04:41;;;;;;;4.07;2.28;;;8.70;70.10;;;;;;5008778;28;20032;-81
2021/12/16 11:07:32;;;;;;;4.75;2.30;;;8.70;70.00;;;;;;5025894;28;20045;-81
2021/12/16 11:10:03;;;;;;;3.45;2.20;;;8.80;70.00;;;;;;5008914;28;20408;-81
2021/12/16 11:12:39;;;;;;;3.15;2.40;;;8.70;70.10;;;;;;4992796;28;20037;-81
2021/12/16 11:15:17;;;;;;;3.03;2.25;;;8.80;70.10;;;;;;5003115;28;20077;-82
2021/12/16 11:17:45;;;;;;;2.85;2.22;;;8.80;70.00;;;;;;5025894;28;20113;-81
2021/12/16 11:20:22;;;;;;;3.45;2.10;;;8.80;70.00;;;;;;5031907;28;20037;-81
2021/12/16 11:22:52;;;;;;;2.97;2.20;;;8.80;70.00;;;;;;5026956;28;20037;-80
2021/12/16 11:25:25;;;;;;;4.22;2.00;;;8.80;70.00;;;;;;5013584;28;20026;-79
2021/12/16 11:27:56;;;;;;;4.57;2.03;;;8.80;70.00;;;;;;5030633;28;20048;-79
2021/12/16 11:30:48;;;;;;;2.88;2.22;;;8.80;70.00;;;;;;5026218;28;20060;-78
2021/12/16 11:33:22;;;;;;;5.35;1.80;;;8.80;70.00;;;;;;5025810;28;20113;-81
2021/12/16 11:36:11;;;;;;;2.97;1.88;;;8.90;70.00;;;;;;5015595;28;20112;-76
2021/12/16 11:39:12;;;;;;;3.72;2.20;;;8.90;70.00;;;;;;4995568;28;20034;-76
2021/12/16 11:41:40;;;;;;;3.42;2.38;;;8.90;69.90;;;;;;5016440;28;20033;-76
2021/12/16 11:44:24;;;;;;;4.45;2.35;;;8.80;70.00;;;;;;5024874;28;20049;-76
2021/12/16 11:46:54;;;;;;;3.63;2.50;;;8.90;69.80;;;;;;5023364;28;20034;-77
2021/12/16 11:49:28;;;;;;;5.72;2.47;;;8.90;70.10;;;;;;5023705;28;20776;-78
2021/12/16 11:52:06;;;;;;;3.53;2.38;;;8.80;69.10;;;;;;5023527;28;20041;-77
2021/12/16 11:54:35;;;;;;;4.97;2.58;;;8.80;68.90;;;;;;5024775;28;20397;-78
2021/12/16 11:57:10;;;;;;;6.68;2.78;;;8.80;68.70;;;;;;5024585;28;20057;-77
2021/12/16 11:59:46;;;;;;;2.17;1.98;;;8.80;68.60;;;;;;5022095;28;20160;-78
2021/12/16 12:02:41;;;;;;;3.53;2.30;;;8.70;68.40;;;;;;5023504;28;20064;-78
2021/12/16 12:05:22;;;;;;;4.82;2.50;;;8.70;68.40;;;;;;5024245;28;20037;-77
2021/12/16 12:07:51;;;;;;;5.53;2.40;;;8.70;68.30;;;;;;5024726;28;20061;-77
2021/12/16 12:10:43;;;;;;;2.97;2.20;;;8.70;68.20;;;;;;5025419;28;20649;-77
2021/12/16 12:13:17;;;;;;;5.07;2.47;;;8.70;68.30;;;;;;5025780;28;20634;-77
2021/12/16 12:15:54;;;;;;;5.07;2.42;;;8.70;68.10;;;;;;5024881;28;20131;-78
2021/12/16 12:18:50;;;;;;;7.10;2.53;;;8.60;68.10;;;;;;5034421;28;20044;-78
2021/12/16 12:21:44;;;;;;;5.30;2.45;;;8.60;68.10;;;;;;4998050;28;20044;-78
2021/12/16 12:24:21;;;;;;;4.55;2.67;;;8.60;68.10;;;;;;5003474;28;20030;-77
2021/12/16 12:26:57;;;;;;;3.47;2.30;;;8.60;68.10;;;;;;5023413;28;20088;-78
2021/12/16 12:29:30;;;;;;;4.40;2.47;;;8.50;68.00;;;;;;5018551;28;20033;-78
2021/12/16 12:31:58;;;;;;;3.75;2.35;;;8.50;68.00;;;;;;5011551;28;20037;-78
2021/12/16 12:34:24;;;;;;;4.28;2.38;;;8.50;68.00;;;;;;5021694;28;20519;-78
2021/12/16 12:36:53;;;;;;;6.25;3.40;;;8.50;67.90;;;;;;5022419;28;20049;-78
2021/12/16 12:39:27;;;;;;;5.68;2.35;;;8.50;68.00;;;;;;5023124;28;20068;-78
2021/12/16 12:41:54;;;;;;;3.35;2.38;;;8.50;67.90;;;;;;4994148;28;20034;-78
2021/12/16 12:44:21;;;;;;;3.67;2.47;;;8.50;68.00;;;;;;5018490;28;20041;-77
2021/12/16 12:46:48;;;;;;;3.08;2.75;;;8.50;68.00;;;;;;5020613;28;20064;-78
2021/12/16 12:49:24;;;;;;;3.78;2.67;;;8.50;68.10;;;;;;5017182;28;20053;-78
2021/12/16 12:51:50;;;;;;;2.40;2.20;;;8.50;68.10;;;;;;5023256;28;20065;-80
2021/12/16 12:54:27;;;;;;;5.30;2.72;;;8.50;68.00;;;;;;5022350;28;20059;-78
2021/12/16 12:56:57;;;;;;;4.88;2.60;;;8.50;68.10;;;;;;5022664;28;20096;-80
2021/12/16 12:59:37;;;;;;;4.68;2.50;;;8.50;68.10;;;;;;5020287;28;20044;-77
2021/12/16 13:02:13;;;;;;;4.63;2.38;;;8.50;68.10;;;;;;5023423;28;20042;-79
2021/12/16 13:04:55;;;;;;;4.13;2.40;;;8.50;68.10;;;;;;5020306;28;20065;-79
2021/12/16 13:07:43;;;;;;;3.58;2.30;;;8.40;68.10;;;;;;5021993;28;20036;-80
2021/12/16 13:10:27;;;;;;;3.78;2.38;;;8.40;68.10;;;;;;5025268;28;20056;-79
2021/12/16 13:13:23;;;;;;;5.97;2.85;;;8.40;68.20;;;;;;5025239;28;20580;-79
2021/12/16 13:27:43;;;;;;;4.63;2.60;;;8.30;68.40;;;;;;5024790;28;20038;-78
2021/12/16 13:33:00;;;;;;;3.47;2.58;;;8.30;68.30;;;;;;5024795;28;20026;-79
2021/12/16 13:35:35;;;;;;;3.90;2.75;;;8.40;68.40;;;;;;4999674;28;20041;-79
2021/12/16 13:38:08;;;;;;;6.00;2.60;;;8.40;68.30;;;;;;5027086;28;20065;-79
2021/12/16 13:40:40;;;;;;;3.80;2.55;;;8.40;68.30;;;;;;5027454;28;20439;-78
2021/12/16 13:43:20;;;;;;;8.48;3.22;;;8.30;68.20;;;;;;5027342;28;20034;-78
2021/12/16 14:03:41;;;;;;;3.83;2.35;;;8.30;68.30;;;;;;5026288;28;20050;-78
2021/12/16 14:08:44;;;;;;;4.85;2.20;;;8.30;68.40;;;;;;5024134;28;20035;-78
2021/12/16 14:14:23;;;;;;;4.40;2.47;;;8.30;68.30;;;;;;5026859;28;20044;-78
2021/12/16 14:46:26;;;;;;;1.88;1.55;;;8.60;69.90;;;;;;4986251;28;20038;-76
2021/12/16 14:48:53;;;;;;;3.08;1.30;;;8.60;70.20;;;;;;5016618;28;20033;-76
2021/12/16 14:51:19;;;;;;;2.38;1.25;;;8.70;70.40;;;;;;5016480;28;20054;-77
2021/12/16 14:53:54;;;;;;;2.53;1.70;;;8.70;70.60;;;;;;5017048;28;20044;-76
2021/12/16 14:56:31;;;;;;;5.00;1.50;;;8.80;70.80;;;;;;5017705;28;20069;-76
2021/12/16 14:59:04;;;;;;;2.95;1.67;;;8.80;70.90;;;;;;5016172;28;20052;-76
2021/12/16 15:01:35;;;;;;;2.72;1.60;;;8.90;71.00;;;;;;5015144;28;20034;-76
2021/12/16 15:04:02;;;;;;;2.72;1.50;;;8.90;71.10;;;;;;5012841;28;20827;-76
2021/12/16 15:06:41;;;;;;;5.57;1.63;;;8.90;71.10;;;;;;5015878;28;20118;-76
2021/12/16 15:09:28;;;;;;;2.13;1.38;;;9.00;71.20;;;;;;5018395;28;20049;-76
2021/12/16 15:12:04;;;;;;;2.90;1.60;;;9.00;71.20;;;;;;4987648;28;20066;-76
2021/12/16 15:44:22;;;;;;;2.08;1.55;;;9.30;71.60;;;;;;5021646;28;20034;-79
2021/12/16 15:46:50;;;;;;;2.88;1.40;;;9.30;71.70;;;;;;5006086;28;20547;-78
2021/12/16 15:49:17;;;;;;;1.92;1.25;;;9.30;71.70;;;;;;4985765;28;20551;-78
2021/12/16 15:51:43;;;;;;;4.13;1.52;;;9.30;71.60;;;;;;5016494;28;20515;-78
2021/12/16 15:54:10;;;;;;;19.17;2.15;;;9.40;71.80;;;;;;5017495;28;20112;-79
2021/12/16 15:56:39;;;;;;;2.70;1.85;;;9.40;71.80;;;;;;5006705;28;20420;-79
2021/12/16 15:59:13;;;;;;;2.15;1.50;;;9.40;71.80;;;;;;5011375;28;20080;-78
2021/12/16 16:01:48;;;;;;;1.73;1.60;;;9.40;71.80;;;;;;5018378;28;20025;-78
2021/12/16 16:04:23;;;;;;;2.10;1.60;;;9.50;71.90;;;;;;5014829;28;20061;-78
2021/12/16 16:07:07;;;;;;;2.08;1.70;;;9.50;71.90;;;;;;5024688;28;20033;-78
2021/12/16 16:09:40;;;;;;;3.35;1.65;;;9.50;72.00;;;;;;4995666;28;20077;-79
2021/12/16 16:12:11;;;;;;;3.13;1.50;;;9.50;71.90;;;;;;5022086;28;20037;-79
2021/12/16 16:14:44;;;;;;;2.30;1.27;;;9.50;72.00;;;;;;4995152;28;20493;-79
2021/12/16 16:17:15;;;;;;;4.85;1.67;;;9.60;72.00;;;;;;4995034;28;20083;-80
2021/12/16 16:19:42;;;;;;;1.60;1.20;;;9.60;72.00;;;;;;5016372;28;20030;-78
2021/12/16 16:22:08;;;;;;;3.58;1.30;;;9.60;72.00;;;;;;5009984;28;20111;-78
2021/12/16 16:24:47;;;;;;;2.55;1.25;;;9.60;71.90;;;;;;5035912;28;20045;-78
2021/12/16 16:27:23;;;;;;;3.25;1.60;;;9.60;71.80;;;;;;5020005;28;20312;-79
2021/12/16 16:29:53;;;;;;;2.92;1.70;;;9.60;71.60;;;;;;5027370;28;20033;-82
2021/12/16 16:32:19;;;;;;;2.83;1.40;;;9.60;71.50;;;;;;5008220;28;20044;-80
2021/12/16 16:34:53;;;;;;;3.03;1.50;;;9.60;71.20;;;;;;5026667;28;20072;-80
2021/12/16 16:37:36;;;;;;;3.30;1.30;;;9.60;71.20;;;;;;5004748;28;20084;-81
2021/12/16 16:40:08;;;;;;;2.22;1.50;;;9.60;71.10;;;;;;5024755;28;20499;-78
2021/12/16 16:42:41;;;;;;;1.50;1.20;;;9.60;70.80;;;;;;4980405;28;20029;-78
2021/12/16 16:45:18;;;;;;;1.88;1.25;;;9.60;70.80;;;;;;5023962;28;20049;-78
2021/12/16 16:47:54;;;;;;;2.17;1.50;;;9.60;70.60;;;;;;5023074;28;20036;-77
2021/12/16 16:50:24;;;;;;;2.88;1.40;;;9.60;70.80;;;;;;5021886;28;20054;-78
2021/12/16 16:52:57;;;;;;;2.42;1.60;;;9.60;69.80;;;;;;4995378;28;20416;-78
2021/12/16 16:55:28;;;;;;;2.17;1.45;;;9.60;69.50;;;;;;5008019;28;20034;-78
2021/12/16 16:58:03;;;;;;;3.17;1.50;;;9.60;69.20;;;;;;5022884;28;20426;-78
2021/12/16 17:00:34;;;;;;;2.17;1.48;;;9.50;69.00;;;;;;5004985;28;20570;-79
2021/12/16 17:03:05;;;;;;;2.78;1.42;;;9.50;68.80;;;;;;5008687;28;20083;-76
2021/12/16 17:05:36;;;;;;;2.20;1.42;;;9.50;68.70;;;;;;5024412;28;20026;-76
2021/12/16 17:08:17;;;;;;;3.08;1.52;;;9.40;68.60;;;;;;5024185;28;20034;-75
2021/12/16 17:10:53;;;;;;;2.97;1.33;;;9.40;68.50;;;;;;5024288;28;20033;-78
2021/12/16 17:13:25;;;;;;;1.80;1.50;;;9.40;68.40;;;;;;5023329;28;20101;-77
2021/12/16 17:18:33;;;;;;;3.33;1.50;;;9.30;68.20;;;;;;5023776;28;20033;-76
2021/12/16 17:21:21;;;;;;;2.80;1.80;;;9.30;68.20;;;;;;5022433;28;20056;-79